createdAt,value
2023-03-06T00:03:03.724Z,100416.88
2023-03-06T00:07:06.773Z,100403.44
2023-03-06T00:11:09.653Z,100403.44
2023-03-06T00:15:14.893Z,100395.56
2023-03-06T00:19:17.777Z,100391.81
2023-03-06T00:23:20.887Z,100395.16
2023-03-06T00:27:26.208Z,100393.06
2023-03-06T00:31:30.673Z,100390.16
2023-03-06T00:35:34.744Z,100389.09
2023-03-06T00:39:37.554Z,100384.94
2023-03-06T00:43:41.492Z,100400.84
2023-03-06T00:47:45.730Z,100383.88
2023-03-06T00:51:48.870Z,100379.31
2023-03-06T00:55:52.303Z,100381.38
2023-03-06T00:59:55.667Z,100372.72
2023-03-06T01:04:00.216Z,100367.09
2023-03-06T01:08:03.864Z,100373.50
2023-03-06T01:12:07.348Z,100370.97
2023-03-06T01:16:14.362Z,100359.78
2023-03-06T01:20:19.814Z,100356.66
2023-03-06T01:24:23.966Z,100350.06
2023-03-06T01:28:26.922Z,100340.53
2023-03-06T01:32:32.596Z,100340.72
2023-03-06T01:36:36.975Z,100330.41
2023-03-06T01:40:40.756Z,100314.88
2023-03-06T01:44:59.959Z,100317.16
2023-03-06T01:49:08.622Z,100307.22
2023-03-06T01:53:14.214Z,100296.66
2023-03-06T01:57:21.617Z,100286.31
2023-03-06T02:01:25.214Z,100279.91
2023-03-06T02:05:28.576Z,100283.19
2023-03-06T02:09:34.803Z,100275.78
2023-03-06T02:13:39.288Z,100293.09
2023-03-06T02:17:47.467Z,100281.50
2023-03-06T02:21:50.996Z,100280.50
2023-03-06T02:25:56.035Z,100281.31
2023-03-06T02:30:01.482Z,100274.91
2023-03-06T02:34:07.526Z,100266.63
2023-03-06T02:38:12.802Z,100271.16
2023-03-06T02:42:24.952Z,100267.22
2023-03-06T02:46:29.983Z,100258.34
2023-03-06T02:50:33.499Z,100266.84
2023-03-06T02:54:37.724Z,100255.06
2023-03-06T02:58:44.465Z,100251.31
2023-03-06T03:02:47.667Z,100233.13
2023-03-06T03:06:50.940Z,100238.91
2023-03-06T03:10:54.561Z,100241.13
2023-03-06T03:14:59.909Z,100234.31
2023-03-06T03:19:04.864Z,100236.19
2023-03-06T03:23:09.392Z,100232.88
2023-03-06T03:27:12.465Z,100238.44
2023-03-06T03:31:17.184Z,100224.84
2023-03-06T03:35:20.630Z,100222.31
2023-03-06T03:39:24.419Z,100218.81
2023-03-06T03:43:27.312Z,100213.47
2023-03-06T03:47:32.901Z,100196.13
2023-03-06T03:51:37.771Z,100195.69
2023-03-06T03:55:41.008Z,100183.75
2023-03-06T03:59:44.369Z,100182.28
2023-03-06T04:03:59.192Z,100182.91
2023-03-06T04:08:03.186Z,100180.03
2023-03-06T04:12:08.526Z,100173.44
2023-03-06T04:16:13.336Z,100169.53
2023-03-06T04:20:18.990Z,100166.41
2023-03-06T04:24:23.209Z,100164.53
2023-03-06T04:28:27.155Z,100167.44
2023-03-06T04:32:30.493Z,100171.78
2023-03-06T04:36:36.243Z,100164.97
2023-03-06T04:40:47.195Z,100154.84
2023-03-06T04:44:50.456Z,100153.41
2023-03-06T04:48:53.292Z,100139.16
2023-03-06T04:52:57.524Z,100139.56
2023-03-06T04:57:00.500Z,100125.72
2023-03-06T05:01:03.823Z,100131.75
2023-03-06T05:05:07.487Z,100129.69
2023-03-06T05:09:12.312Z,100130.75
2023-03-06T05:13:15.401Z,100129.72
2023-03-06T05:17:18.284Z,100126.63
2023-03-06T05:21:21.054Z,100128.06
2023-03-06T05:25:25.229Z,100117.13
2023-03-06T05:29:28.512Z,100117.75
2023-03-06T05:33:32.694Z,100121.50
2023-03-06T05:37:35.588Z,100110.53
2023-03-06T05:41:40.557Z,100109.34
2023-03-06T05:45:44.902Z,100108.91
2023-03-06T05:49:53.686Z,100117.38
2023-03-06T05:54:02.326Z,100108.88
2023-03-06T05:58:07.864Z,100113.41
2023-03-06T06:02:13.855Z,100111.78
2023-03-06T06:06:16.838Z,100103.72
2023-03-06T06:10:20.498Z,100105.78
2023-03-06T06:15:09.134Z,100110.28
2023-03-06T06:19:29.622Z,100113.19
2023-03-06T06:23:58.837Z,100108.19
2023-03-06T06:28:15.041Z,100108.59
2023-03-06T06:32:18.015Z,100113.97
2023-03-06T06:36:23.297Z,100105.91
2023-03-06T06:40:27.599Z,100110.00
2023-03-06T06:44:30.974Z,100124.03
2023-03-06T06:48:33.818Z,100121.59
2023-03-06T06:52:57.158Z,100109.22
2023-03-06T06:57:15.089Z,100106.75
2023-03-06T07:01:20.399Z,100116.00
2023-03-06T07:05:23.810Z,100109.00
2023-03-06T07:09:30.341Z,100118.53
2023-03-06T07:13:41.342Z,100119.41
2023-03-06T07:17:44.402Z,100116.09
2023-03-06T07:21:47.248Z,100124.78
2023-03-06T07:25:51.784Z,100117.56
2023-03-06T07:29:54.599Z,100136.94
2023-03-06T07:33:57.581Z,100137.56
2023-03-06T07:38:00.405Z,100140.72
2023-03-06T07:42:04.939Z,100133.28
2023-03-06T07:46:08.365Z,100124.00
2023-03-06T07:50:12.531Z,100129.22
2023-03-06T07:54:15.470Z,100124.03
2023-03-06T07:58:19.754Z,100122.81
2023-03-06T08:02:22.570Z,100132.75
2023-03-06T08:06:27.559Z,100130.47
2023-03-06T08:10:30.417Z,100138.31
2023-03-06T08:14:36.827Z,100148.66
2023-03-06T08:18:40.512Z,100143.69
2023-03-06T08:22:43.366Z,100149.25
2023-03-06T08:26:46.933Z,100150.69
2023-03-06T08:30:51.055Z,100156.94
2023-03-06T08:34:53.974Z,100155.66
2023-03-06T08:38:57.492Z,100167.03
2023-03-06T08:43:00.304Z,100162.91
2023-03-06T08:47:05.068Z,100150.09
2023-03-06T08:51:09.741Z,100147.59
2023-03-06T08:55:15.030Z,100157.53
2023-03-06T08:59:18.016Z,100157.50
2023-03-06T09:03:24.200Z,100156.84
2023-03-06T09:07:27.170Z,100156.84
2023-03-06T09:11:30.101Z,100162.81
2023-03-06T09:15:32.988Z,100158.81
2023-03-06T09:19:37.653Z,100166.25
2023-03-06T09:23:40.779Z,100163.34
2023-03-06T09:27:43.662Z,100159.94
2023-03-06T09:31:46.785Z,100152.63
2023-03-06T09:35:52.989Z,100155.56
2023-03-06T09:39:56.427Z,100162.66
2023-03-06T09:44:09.032Z,100152.88
2023-03-06T09:48:15.951Z,100153.47
2023-03-06T09:52:32.482Z,100141.94
2023-03-06T09:56:37.148Z,100147.84
2023-03-06T10:00:42.511Z,100147.41
2023-03-06T10:04:51.135Z,100146.00
2023-03-06T10:09:01.650Z,100142.72
2023-03-06T10:13:13.905Z,100147.53
2023-03-06T10:17:19.019Z,100145.56
2023-03-06T10:21:43.430Z,100149.25
2023-03-06T10:25:55.933Z,100145.13
2023-03-06T10:30:10.146Z,100155.97
2023-03-06T10:34:21.911Z,100151.34
2023-03-06T10:38:27.000Z,100158.72
2023-03-06T10:42:31.277Z,100148.28
2023-03-06T10:46:37.039Z,100143.41
2023-03-06T10:50:40.030Z,100150.38
2023-03-06T10:54:44.969Z,100152.38
2023-03-06T10:59:06.135Z,100158.16
2023-03-06T11:03:19.615Z,100159.22
2023-03-06T11:07:23.880Z,100167.69
2023-03-06T11:11:37.107Z,100162.34
2023-03-06T11:15:56.104Z,100162.75
2023-03-06T11:20:17.146Z,100154.06
2023-03-06T11:24:21.943Z,100156.59
2023-03-06T11:28:29.309Z,100155.63
2023-03-06T11:32:43.320Z,100149.31
2023-03-06T11:36:50.906Z,100147.75
2023-03-06T11:40:56.995Z,100146.31
2023-03-06T11:45:10.182Z,100140.41
2023-03-06T11:49:23.886Z,100143.03
2023-03-06T11:53:33.232Z,100136.56
2023-03-06T11:57:46.536Z,100136.38
2023-03-06T12:02:00.534Z,100129.47
2023-03-06T12:06:12.066Z,100119.72
2023-03-06T12:10:20.698Z,100124.94
2023-03-06T12:14:38.492Z,100125.75
2023-03-06T12:18:53.652Z,100127.00
2023-03-06T12:23:14.888Z,100121.94
2023-03-06T12:27:25.719Z,100118.56
2023-03-06T12:31:43.862Z,100118.94
2023-03-06T12:35:59.287Z,100116.00
2023-03-06T12:40:24.708Z,100103.44
2023-03-06T12:44:48.669Z,100118.59
2023-03-06T12:49:04.043Z,100104.28
2023-03-06T12:53:09.318Z,100102.03
2023-03-06T12:57:16.186Z,100099.69
2023-03-06T13:01:55.205Z,100087.94
2023-03-06T13:06:13.788Z,100086.44
2023-03-06T13:10:26.507Z,100083.25
2023-03-06T13:14:55.771Z,100088.09
2023-03-06T13:19:04.467Z,100083.03
2023-03-06T13:23:45.431Z,100081.97
2023-03-06T13:28:03.116Z,100071.03
2023-03-06T13:32:16.217Z,100067.59
2023-03-06T13:36:25.919Z,100059.50
2023-03-06T13:40:34.542Z,100065.34
2023-03-06T13:44:45.893Z,100055.38
2023-03-06T13:49:05.768Z,100047.88
2023-03-06T13:53:36.514Z,100049.16
2023-03-06T13:57:55.206Z,100046.44
2023-03-06T14:02:10.952Z,100044.69
2023-03-06T14:06:50.082Z,100030.00
2023-03-06T14:11:02.079Z,100023.69
2023-03-06T14:15:12.905Z,100016.25
2023-03-06T14:19:18.630Z,100011.44
2023-03-06T14:23:28.779Z,100004.94
2023-03-06T14:27:48.429Z,99998.34
2023-03-06T14:31:53.951Z,100002.03
2023-03-06T14:35:59.195Z,100000.41
2023-03-06T14:40:10.855Z,99985.16
2023-03-06T14:44:19.323Z,99995.47
2023-03-06T14:48:23.093Z,99981.72
2023-03-06T14:52:27.155Z,99978.06
2023-03-06T14:56:35.387Z,99977.41
2023-03-06T15:00:42.743Z,99970.66
2023-03-06T15:04:48.850Z,99973.63
2023-03-06T15:09:00.167Z,99970.94
2023-03-06T15:13:11.814Z,99964.47
2023-03-06T15:17:26.321Z,99956.44
2023-03-06T15:21:33.187Z,99951.66
2023-03-06T15:25:36.080Z,99938.47
2023-03-06T15:29:40.783Z,99941.56
2023-03-06T15:33:43.585Z,99929.22
2023-03-06T15:37:46.423Z,99929.63
2023-03-06T15:41:49.405Z,99919.75
2023-03-06T15:45:58.807Z,99914.69
2023-03-06T15:50:01.622Z,99910.56
2023-03-06T15:54:12.430Z,99903.88
2023-03-06T15:58:20.586Z,99888.47
2023-03-06T16:02:26.294Z,99882.59
2023-03-06T16:06:30.759Z,99880.63
2023-03-06T16:10:37.157Z,99870.28
2023-03-06T16:14:40.966Z,99870.31
2023-03-06T16:18:45.193Z,99857.03
2023-03-06T16:22:49.710Z,99867.19
2023-03-06T16:26:54.877Z,99859.56
2023-03-06T16:30:57.802Z,99858.50
2023-03-06T16:35:02.034Z,99851.91
2023-03-06T16:39:05.473Z,99848.41
2023-03-06T16:43:09.765Z,99841.03
2023-03-06T16:47:13.036Z,99841.50
2023-03-06T16:51:18.827Z,99839.88
2023-03-06T16:55:22.322Z,99838.28
2023-03-06T16:59:26.032Z,99848.97
2023-03-06T17:03:28.882Z,99875.13
2023-03-06T17:07:40.749Z,99874.97
